sensor_id;sensor_type;location;lat;lon;timestamp;pressure;altitude;pressure_sealevel;temperature;humidity
67430;BME280;54298;52.076;5.264;2023-03-11T00:00:06;100621.0;;;1.38;81.38
67430;BME280;54298;52.076;5.264;2023-03-11T00:03:20;100620.0;;;1.31;81.58
67430;BME280;54298;52.076;5.264;2023-03-11T00:04:57;100618.0;;;1.21;82.58
67430;BME280;54298;52.076;5.264;2023-03-11T00:06:33;100622.0;;;1.22;82.52
67430;BME280;54298;52.076;5.264;2023-03-11T00:09:49;100625.0;;;1.27;81.74
67430;BME280;54298;52.076;5.264;2023-03-11T00:11:25;100620.0;;;1.22;81.83
67430;BME280;54298;52.076;5.264;2023-03-11T00:13:03;100624.0;;;1.14;81.44
67430;BME280;54298;52.076;5.264;2023-03-11T00:14:41;100625.0;;;1.15;81.96
67430;BME280;54298;52.076;5.264;2023-03-11T00:17:53;100625.0;;;1.06;82.05
67430;BME280;54298;52.076;5.264;2023-03-11T00:19:30;100626.0;;;1.1;81.86
67430;BME280;54298;52.076;5.264;2023-03-11T00:21:13;100625.0;;;1.0;82.54
67430;BME280;54298;52.076;5.264;2023-03-11T00:24:27;100628.0;;;0.99;82.39
67430;BME280;54298;52.076;5.264;2023-03-11T00:26:04;100630.0;;;0.95;83.18
67430;BME280;54298;52.076;5.264;2023-03-11T00:27:40;100634.0;;;0.95;83.78
67430;BME280;54298;52.076;5.264;2023-03-11T00:29:16;100632.0;;;1.15;82.73
67430;BME280;54298;52.076;5.264;2023-03-11T00:32:28;100639.0;;;1.1;83.14
67430;BME280;54298;52.076;5.264;2023-03-11T00:34:04;100642.0;;;0.95;83.66
67430;BME280;54298;52.076;5.264;2023-03-11T00:35:41;100644.0;;;0.89;83.79
67430;BME280;54298;52.076;5.264;2023-03-11T00:38:53;100644.0;;;0.92;84.44
67430;BME280;54298;52.076;5.264;2023-03-11T00:40:31;100651.0;;;1.05;84.77
67430;BME280;54298;52.076;5.264;2023-03-11T00:42:10;100661.0;;;1.04;84.93
67430;BME280;54298;52.076;5.264;2023-03-11T00:45:22;100665.0;;;1.06;85.12
67430;BME280;54298;52.076;5.264;2023-03-11T00:46:59;100667.0;;;1.12;85.38
67430;BME280;54298;52.076;5.264;2023-03-11T00:48:35;100669.0;;;1.12;84.96
67430;BME280;54298;52.076;5.264;2023-03-11T00:50:15;100673.0;;;1.13;85.59
67430;BME280;54298;52.076;5.264;2023-03-11T00:53:28;100673.0;;;1.08;85.66
67430;BME280;54298;52.076;5.264;2023-03-11T00:55:05;100672.0;;;1.12;85.56
67430;BME280;54298;52.076;5.264;2023-03-11T00:56:41;100674.0;;;1.04;85.48
67430;BME280;54298;52.076;5.264;2023-03-11T00:59:54;100678.0;;;0.96;85.74
67430;BME280;54298;52.076;5.264;2023-03-11T01:01:30;100676.0;;;0.91;85.64
67430;BME280;54298;52.076;5.264;2023-03-11T01:03:07;100677.0;;;0.9;86.0
67430;BME280;54298;52.076;5.264;2023-03-11T01:06:19;100683.0;;;0.8;86.07
67430;BME280;54298;52.076;5.264;2023-03-11T01:07:57;100686.0;;;0.78;86.31
67430;BME280;54298;52.076;5.264;2023-03-11T01:09:33;100686.0;;;0.74;86.22
67430;BME280;54298;52.076;5.264;2023-03-11T01:11:09;100683.0;;;0.78;86.16
67430;BME280;54298;52.076;5.264;2023-03-11T01:14:22;100685.0;;;0.73;86.12
67430;BME280;54298;52.076;5.264;2023-03-11T01:15:58;100694.0;;;0.72;85.67
67430;BME280;54298;52.076;5.264;2023-03-11T01:17:35;100694.0;;;0.68;85.89
67430;BME280;54298;52.076;5.264;2023-03-11T01:20:49;100693.0;;;0.7;85.24
67430;BME280;54298;52.076;5.264;2023-03-11T01:22:26;100701.0;;;0.69;84.72
67430;BME280;54298;52.076;5.264;2023-03-11T01:24:02;100708.0;;;0.59;84.62
67430;BME280;54298;52.076;5.264;2023-03-11T01:27:15;100707.0;;;0.5;85.45
67430;BME280;54298;52.076;5.264;2023-03-11T01:28:51;100705.0;;;0.53;85.86
67430;BME280;54298;52.076;5.264;2023-03-11T01:30:28;100709.0;;;0.56;86.24
67430;BME280;54298;52.076;5.264;2023-03-11T01:32:05;100709.0;;;0.58;86.56
67430;BME280;54298;52.076;5.264;2023-03-11T01:35:19;100710.0;;;0.54;86.8
67430;BME280;54298;52.076;5.264;2023-03-11T01:36:58;100710.0;;;0.51;86.85
67430;BME280;54298;52.076;5.264;2023-03-11T01:38:34;100711.0;;;0.51;87.0
67430;BME280;54298;52.076;5.264;2023-03-11T01:42:04;100711.0;;;0.51;86.92
67430;BME280;54298;52.076;5.264;2023-03-11T01:43:49;100716.0;;;0.52;86.44
67430;BME280;54298;52.076;5.264;2023-03-11T01:45:40;100711.0;;;0.44;86.98
67430;BME280;54298;52.076;5.264;2023-03-11T01:47:44;100716.0;;;0.45;86.91
67430;BME280;54298;52.076;5.264;2023-03-11T01:49:20;100718.0;;;0.42;86.89
67430;BME280;54298;52.076;5.264;2023-03-11T01:50:59;100715.0;;;0.38;87.27
67430;BME280;54298;52.076;5.264;2023-03-11T01:54:14;100720.0;;;0.36;87.54
67430;BME280;54298;52.076;5.264;2023-03-11T01:55:53;100723.0;;;0.38;87.72
67430;BME280;54298;52.076;5.264;2023-03-11T01:57:30;100722.0;;;0.46;87.24
67430;BME280;54298;52.076;5.264;2023-03-11T02:00:49;100717.0;;;0.46;87.5
67430;BME280;54298;52.076;5.264;2023-03-11T02:02:30;100717.0;;;0.48;87.1
67430;BME280;54298;52.076;5.264;2023-03-11T02:04:09;100723.0;;;0.53;86.72
67430;BME280;54298;52.076;5.264;2023-03-11T02:05:46;100717.0;;;0.53;86.7
67430;BME280;54298;52.076;5.264;2023-03-11T02:09:00;100719.0;;;0.39;87.09
67430;BME280;54298;52.076;5.264;2023-03-11T02:10:38;100718.0;;;0.35;87.4
67430;BME280;54298;52.076;5.264;2023-03-11T02:12:16;100716.0;;;0.39;86.86
67430;BME280;54298;52.076;5.264;2023-03-11T02:13:53;100715.0;;;0.38;86.96
67430;BME280;54298;52.076;5.264;2023-03-11T02:17:08;100720.0;;;0.42;86.9
67430;BME280;54298;52.076;5.264;2023-03-11T02:18:44;100725.0;;;0.42;86.77
67430;BME280;54298;52.076;5.264;2023-03-11T02:20:28;100736.0;;;0.42;86.61
67430;BME280;54298;52.076;5.264;2023-03-11T02:22:10;100731.0;;;0.26;86.99
67430;BME280;54298;52.076;5.264;2023-03-11T02:25:38;100739.0;;;0.23;87.12
67430;BME280;54298;52.076;5.264;2023-03-11T02:27:18;100734.0;;;0.11;87.71
67430;BME280;54298;52.076;5.264;2023-03-11T02:28:57;100737.0;;;0.09;87.84
67430;BME280;54298;52.076;5.264;2023-03-11T02:30:35;100738.0;;;0.08;87.87
67430;BME280;54298;52.076;5.264;2023-03-11T02:33:49;100737.0;;;0.04;87.89
67430;BME280;54298;52.076;5.264;2023-03-11T02:35:28;100742.0;;;0.1;87.66
67430;BME280;54298;52.076;5.264;2023-03-11T02:37:06;100738.0;;;0.03;87.54
67430;BME280;54298;52.076;5.264;2023-03-11T02:40:39;100734.0;;;0.0;87.43
67430;BME280;54298;52.076;5.264;2023-03-11T02:42:31;100730.0;;;0.05;87.14
67430;BME280;54298;52.076;5.264;2023-03-11T02:44:10;100728.0;;;0.18;86.29
67430;BME280;54298;52.076;5.264;2023-03-11T02:45:47;100719.0;;;0.2;85.86
67430;BME280;54298;52.076;5.264;2023-03-11T02:47:24;100728.0;;;0.11;85.49
67430;BME280;54298;52.076;5.264;2023-03-11T02:50:38;100726.0;;;-0.11;85.87
67430;BME280;54298;52.076;5.264;2023-03-11T02:52:16;100732.0;;;-0.14;86.29
67430;BME280;54298;52.076;5.264;2023-03-11T02:53:56;100738.0;;;-0.14;86.53
67430;BME280;54298;52.076;5.264;2023-03-11T02:57:11;100735.0;;;-0.16;86.47
67430;BME280;54298;52.076;5.264;2023-03-11T02:58:47;100731.0;;;-0.21;86.73
67430;BME280;54298;52.076;5.264;2023-03-11T03:00:24;100737.0;;;-0.23;86.63
67430;BME280;54298;52.076;5.264;2023-03-11T03:02:01;100735.0;;;-0.31;87.05
67430;BME280;54298;52.076;5.264;2023-03-11T03:05:13;100737.0;;;-0.34;87.62
67430;BME280;54298;52.076;5.264;2023-03-11T03:06:49;100743.0;;;-0.35;87.35
67430;BME280;54298;52.076;5.264;2023-03-11T03:08:25;100738.0;;;-0.33;87.79
67430;BME280;54298;52.076;5.264;2023-03-11T03:11:40;100738.0;;;-0.34;88.15
67430;BME280;54298;52.076;5.264;2023-03-11T03:13:16;100744.0;;;-0.24;88.0
67430;BME280;54298;52.076;5.264;2023-03-11T03:14:52;100744.0;;;-0.25;87.79
67430;BME280;54298;52.076;5.264;2023-03-11T03:18:04;100745.0;;;-0.27;87.69
67430;BME280;54298;52.076;5.264;2023-03-11T03:19:40;100755.0;;;-0.36;88.06
67430;BME280;54298;52.076;5.264;2023-03-11T03:21:16;100756.0;;;-0.25;87.7
67430;BME280;54298;52.076;5.264;2023-03-11T03:22:52;100760.0;;;-0.25;87.57
67430;BME280;54298;52.076;5.264;2023-03-11T03:26:05;100771.0;;;-0.26;87.32
67430;BME280;54298;52.076;5.264;2023-03-11T03:27:41;100769.0;;;-0.32;87.34
67430;BME280;54298;52.076;5.264;2023-03-11T03:29:17;100775.0;;;-0.4;87.75
67430;BME280;54298;52.076;5.264;2023-03-11T03:32:29;100781.0;;;-0.41;87.9
67430;BME280;54298;52.076;5.264;2023-03-11T03:34:06;100782.0;;;-0.37;87.58
67430;BME280;54298;52.076;5.264;2023-03-11T03:35:43;100781.0;;;-0.53;87.39
67430;BME280;54298;52.076;5.264;2023-03-11T03:38:56;100784.0;;;-0.51;87.66
67430;BME280;54298;52.076;5.264;2023-03-11T03:40:33;100782.0;;;-0.49;87.36
67430;BME280;54298;52.076;5.264;2023-03-11T03:42:09;100782.0;;;-0.59;87.5
67430;BME280;54298;52.076;5.264;2023-03-11T03:43:45;100790.0;;;-0.61;87.44
67430;BME280;54298;52.076;5.264;2023-03-11T03:46:58;100793.0;;;-0.66;87.3
67430;BME280;54298;52.076;5.264;2023-03-11T03:48:34;100794.0;;;-0.66;87.62
67430;BME280;54298;52.076;5.264;2023-03-11T03:50:12;100805.0;;;-0.61;87.32
67430;BME280;54298;52.076;5.264;2023-03-11T03:53:24;100803.0;;;-0.69;87.52
67430;BME280;54298;52.076;5.264;2023-03-11T03:55:00;100802.0;;;-0.69;87.51
67430;BME280;54298;52.076;5.264;2023-03-11T03:56:36;100799.0;;;-0.64;87.39
67430;BME280;54298;52.076;5.264;2023-03-11T03:59:49;100802.0;;;-0.69;87.27
67430;BME280;54298;52.076;5.264;2023-03-11T04:01:25;100801.0;;;-0.71;87.13
67430;BME280;54298;52.076;5.264;2023-03-11T04:03:01;100808.0;;;-0.74;86.76
67430;BME280;54298;52.076;5.264;2023-03-11T04:06:16;100816.0;;;-0.79;87.08
67430;BME280;54298;52.076;5.264;2023-03-11T04:07:54;100822.0;;;-0.76;87.01
67430;BME280;54298;52.076;5.264;2023-03-11T04:09:30;100826.0;;;-0.74;86.94
67430;BME280;54298;52.076;5.264;2023-03-11T04:11:06;100824.0;;;-0.7;86.63
67430;BME280;54298;52.076;5.264;2023-03-11T04:14:18;100824.0;;;-0.76;86.9
67430;BME280;54298;52.076;5.264;2023-03-11T04:15:54;100823.0;;;-0.72;86.87
67430;BME280;54298;52.076;5.264;2023-03-11T04:17:30;100823.0;;;-0.75;86.91
67430;BME280;54298;52.076;5.264;2023-03-11T04:20:43;100819.0;;;-0.69;86.96
67430;BME280;54298;52.076;5.264;2023-03-11T04:22:19;100822.0;;;-0.76;86.7
67430;BME280;54298;52.076;5.264;2023-03-11T04:23:56;100820.0;;;-0.76;86.88
67430;BME280;54298;52.076;5.264;2023-03-11T04:27:08;100819.0;;;-0.74;86.63
67430;BME280;54298;52.076;5.264;2023-03-11T04:28:44;100826.0;;;-0.76;86.81
67430;BME280;54298;52.076;5.264;2023-03-11T04:30:20;100824.0;;;-0.84;86.97
67430;BME280;54298;52.076;5.264;2023-03-11T04:31:57;100822.0;;;-0.76;86.88
67430;BME280;54298;52.076;5.264;2023-03-11T04:35:09;100825.0;;;-0.85;87.0
67430;BME280;54298;52.076;5.264;2023-03-11T04:36:46;100827.0;;;-0.92;86.75
67430;BME280;54298;52.076;5.264;2023-03-11T04:38:22;100824.0;;;-1.0;87.04
67430;BME280;54298;52.076;5.264;2023-03-11T04:41:35;100826.0;;;-1.06;87.3
67430;BME280;54298;52.076;5.264;2023-03-11T04:43:11;100831.0;;;-1.15;87.19
67430;BME280;54298;52.076;5.264;2023-03-11T04:44:47;100832.0;;;-1.11;87.27
67430;BME280;54298;52.076;5.264;2023-03-11T04:47:59;100837.0;;;-1.24;87.4
67430;BME280;54298;52.076;5.264;2023-03-11T04:49:36;100836.0;;;-1.11;87.22
67430;BME280;54298;52.076;5.264;2023-03-11T04:51:12;100833.0;;;-1.06;86.76
67430;BME280;54298;52.076;5.264;2023-03-11T04:52:48;100845.0;;;-1.05;86.78
67430;BME280;54298;52.076;5.264;2023-03-11T04:56:00;100842.0;;;-1.14;86.45
67430;BME280;54298;52.076;5.264;2023-03-11T04:57:36;100845.0;;;-1.12;86.68
67430;BME280;54298;52.076;5.264;2023-03-11T04:59:12;100855.0;;;-0.97;86.08
67430;BME280;54298;52.076;5.264;2023-03-11T05:02:26;100850.0;;;-0.96;85.67
67430;BME280;54298;52.076;5.264;2023-03-11T05:04:02;100848.0;;;-1.13;86.33
67430;BME280;54298;52.076;5.264;2023-03-11T05:05:38;100851.0;;;-1.01;85.8
67430;BME280;54298;52.076;5.264;2023-03-11T05:08:50;100847.0;;;-1.01;85.33
67430;BME280;54298;52.076;5.264;2023-03-11T05:10:26;100847.0;;;-1.11;85.76
67430;BME280;54298;52.076;5.264;2023-03-11T05:12:04;100847.0;;;-1.06;85.28
67430;BME280;54298;52.076;5.264;2023-03-11T05:13:41;100846.0;;;-1.03;85.19
67430;BME280;54298;52.076;5.264;2023-03-11T05:16:54;100848.0;;;-1.22;85.6
67430;BME280;54298;52.076;5.264;2023-03-11T05:18:30;100841.0;;;-1.27;86.27
67430;BME280;54298;52.076;5.264;2023-03-11T05:20:07;100849.0;;;-1.28;86.17
67430;BME280;54298;52.076;5.264;2023-03-11T05:23:20;100850.0;;;-1.34;86.42
67430;BME280;54298;52.076;5.264;2023-03-11T05:24:56;100855.0;;;-1.42;86.46
67430;BME280;54298;52.076;5.264;2023-03-11T05:26:33;100861.0;;;-1.54;86.95
67430;BME280;54298;52.076;5.264;2023-03-11T05:29:45;100865.0;;;-1.62;87.27
67430;BME280;54298;52.076;5.264;2023-03-11T05:31:21;100862.0;;;-1.56;87.1
67430;BME280;54298;52.076;5.264;2023-03-11T05:32:57;100861.0;;;-1.53;86.8
67430;BME280;54298;52.076;5.264;2023-03-11T05:36:10;100869.0;;;-1.4;86.47
67430;BME280;54298;52.076;5.264;2023-03-11T05:37:46;100870.0;;;-1.37;86.09
67430;BME280;54298;52.076;5.264;2023-03-11T05:39:23;100865.0;;;-1.41;85.54
67430;BME280;54298;52.076;5.264;2023-03-11T05:40:59;100864.0;;;-1.31;85.54
67430;BME280;54298;52.076;5.264;2023-03-11T05:44:11;100867.0;;;-1.37;85.3
67430;BME280;54298;52.076;5.264;2023-03-11T05:45:47;100880.0;;;-1.55;85.98
67430;BME280;54298;52.076;5.264;2023-03-11T05:47:24;100876.0;;;-1.54;85.85
67430;BME280;54298;52.076;5.264;2023-03-11T05:50:37;100877.0;;;-1.56;85.8
67430;BME280;54298;52.076;5.264;2023-03-11T05:52:13;100882.0;;;-1.4;85.34
67430;BME280;54298;52.076;5.264;2023-03-11T05:53:49;100888.0;;;-1.37;84.87
67430;BME280;54298;52.076;5.264;2023-03-11T05:57:01;100893.0;;;-1.48;85.34
67430;BME280;54298;52.076;5.264;2023-03-11T05:58:37;100891.0;;;-1.66;85.6
67430;BME280;54298;52.076;5.264;2023-03-11T06:00:14;100893.0;;;-1.61;85.9
67430;BME280;54298;52.076;5.264;2023-03-11T06:01:51;100891.0;;;-1.61;85.67
67430;BME280;54298;52.076;5.264;2023-03-11T06:05:03;100892.0;;;-1.66;85.66
67430;BME280;54298;52.076;5.264;2023-03-11T06:06:40;100891.0;;;-1.67;85.7
67430;BME280;54298;52.076;5.264;2023-03-11T06:08:17;100898.0;;;-1.7;85.73
67430;BME280;54298;52.076;5.264;2023-03-11T06:11:30;100898.0;;;-1.79;85.98
67430;BME280;54298;52.076;5.264;2023-03-11T06:13:07;100905.0;;;-1.78;86.04
67430;BME280;54298;52.076;5.264;2023-03-11T06:14:44;100906.0;;;-1.79;86.14
67430;BME280;54298;52.076;5.264;2023-03-11T06:17:56;100908.0;;;-1.74;85.76
67430;BME280;54298;52.076;5.264;2023-03-11T06:19:32;100910.0;;;-1.67;85.7
67430;BME280;54298;52.076;5.264;2023-03-11T06:21:14;100910.0;;;-1.76;85.95
67430;BME280;54298;52.076;5.264;2023-03-11T06:22:51;100910.0;;;-1.77;86.17
67430;BME280;54298;52.076;5.264;2023-03-11T06:26:04;100914.0;;;-1.71;85.59
67430;BME280;54298;52.076;5.264;2023-03-11T06:27:41;100914.0;;;-1.84;85.52
67430;BME280;54298;52.076;5.264;2023-03-11T06:29:17;100922.0;;;-1.56;84.94
67430;BME280;54298;52.076;5.264;2023-03-11T06:32:30;100927.0;;;-1.6;85.03
67430;BME280;54298;52.076;5.264;2023-03-11T06:34:07;100928.0;;;-1.72;85.68
67430;BME280;54298;52.076;5.264;2023-03-11T06:35:54;100932.0;;;-1.79;86.05
67430;BME280;54298;52.076;5.264;2023-03-11T06:37:31;100937.0;;;-1.82;86.24
67430;BME280;54298;52.076;5.264;2023-03-11T06:40:46;100935.0;;;-1.89;86.76
67430;BME280;54298;52.076;5.264;2023-03-11T06:42:22;100935.0;;;-1.83;86.67
67430;BME280;54298;52.076;5.264;2023-03-11T06:43:58;100938.0;;;-1.88;86.91
67430;BME280;54298;52.076;5.264;2023-03-11T06:48:47;100942.0;;;-1.86;87.24
67430;BME280;54298;52.076;5.264;2023-03-11T06:50:24;100939.0;;;-1.8;87.02
67430;BME280;54298;52.076;5.264;2023-03-11T06:52:00;100943.0;;;-1.63;86.77
67430;BME280;54298;52.076;5.264;2023-03-11T06:55:12;100940.0;;;-1.66;86.66
67430;BME280;54298;52.076;5.264;2023-03-11T06:56:48;100942.0;;;-1.67;86.85
67430;BME280;54298;52.076;5.264;2023-03-11T06:58:24;100945.0;;;-1.49;86.48
67430;BME280;54298;52.076;5.264;2023-03-11T07:01:39;100945.0;;;-1.38;85.91
67430;BME280;54298;52.076;5.264;2023-03-11T07:03:15;100951.0;;;-1.38;85.98
67430;BME280;54298;52.076;5.264;2023-03-11T07:04:51;100960.0;;;-1.53;86.78
67430;BME280;54298;52.076;5.264;2023-03-11T07:08:04;100967.0;;;-1.57;87.15
67430;BME280;54298;52.076;5.264;2023-03-11T07:09:40;100967.0;;;-1.49;87.17
67430;BME280;54298;52.076;5.264;2023-03-11T07:11:18;100971.0;;;-1.54;87.38
67430;BME280;54298;52.076;5.264;2023-03-11T07:12:56;100971.0;;;-1.52;87.59
67430;BME280;54298;52.076;5.264;2023-03-11T07:16:10;100973.0;;;-1.43;87.41
67430;BME280;54298;52.076;5.264;2023-03-11T07:17:48;100980.0;;;-1.25;87.12
67430;BME280;54298;52.076;5.264;2023-03-11T07:19:24;100972.0;;;-1.2;87.0
67430;BME280;54298;52.076;5.264;2023-03-11T07:22:37;100976.0;;;-1.29;87.17
67430;BME280;54298;52.076;5.264;2023-03-11T07:24:14;100980.0;;;-1.3;87.56
67430;BME280;54298;52.076;5.264;2023-03-11T07:25:50;100977.0;;;-1.21;87.42
67430;BME280;54298;52.076;5.264;2023-03-11T07:29:03;100980.0;;;-1.02;87.02
67430;BME280;54298;52.076;5.264;2023-03-11T07:30:39;100984.0;;;-1.12;87.27
67430;BME280;54298;52.076;5.264;2023-03-11T07:32:15;100985.0;;;-1.11;87.61
67430;BME280;54298;52.076;5.264;2023-03-11T07:33:52;100989.0;;;-1.09;87.74
67430;BME280;54298;52.076;5.264;2023-03-11T07:37:05;100989.0;;;-1.08;88.14
67430;BME280;54298;52.076;5.264;2023-03-11T07:38:41;100992.0;;;-0.81;87.48
67430;BME280;54298;52.076;5.264;2023-03-11T07:40:18;100988.0;;;-0.71;87.16
67430;BME280;54298;52.076;5.264;2023-03-11T07:43:30;100988.0;;;-0.68;87.27
67430;BME280;54298;52.076;5.264;2023-03-11T07:45:08;100987.0;;;-0.79;87.97
67430;BME280;54298;52.076;5.264;2023-03-11T07:46:44;100992.0;;;-0.79;88.54
67430;BME280;54298;52.076;5.264;2023-03-11T07:49:57;100994.0;;;-0.78;88.73
67430;BME280;54298;52.076;5.264;2023-03-11T07:51:35;100992.0;;;-0.71;88.98
67430;BME280;54298;52.076;5.264;2023-03-11T07:53:12;101002.0;;;-0.57;88.88
67430;BME280;54298;52.076;5.264;2023-03-11T07:54:48;101000.0;;;-0.47;88.66
67430;BME280;54298;52.076;5.264;2023-03-11T07:58:03;101005.0;;;-0.39;88.69
67430;BME280;54298;52.076;5.264;2023-03-11T07:59:40;101014.0;;;-0.28;88.55
67430;BME280;54298;52.076;5.264;2023-03-11T08:01:18;101013.0;;;0.0;87.97
67430;BME280;54298;52.076;5.264;2023-03-11T08:04:31;101018.0;;;0.08;87.96
67430;BME280;54298;52.076;5.264;2023-03-11T08:06:11;101019.0;;;0.22;87.55
67430;BME280;54298;52.076;5.264;2023-03-11T08:07:47;101021.0;;;0.27;87.6
67430;BME280;54298;52.076;5.264;2023-03-11T08:09:23;101028.0;;;0.43;87.54
67430;BME280;54298;52.076;5.264;2023-03-11T08:12:38;101020.0;;;0.5;87.52
67430;BME280;54298;52.076;5.264;2023-03-11T08:14:15;101020.0;;;0.67;87.21
67430;BME280;54298;52.076;5.264;2023-03-11T08:15:51;101017.0;;;0.81;86.32
67430;BME280;54298;52.076;5.264;2023-03-11T08:19:03;101024.0;;;1.02;85.97
67430;BME280;54298;52.076;5.264;2023-03-11T08:20:40;101031.0;;;1.15;85.16
67430;BME280;54298;52.076;5.264;2023-03-11T08:22:15;101028.0;;;1.26;84.77
67430;BME280;54298;52.076;5.264;2023-03-11T08:25:32;101031.0;;;1.34;84.02
67430;BME280;54298;52.076;5.264;2023-03-11T08:27:08;101028.0;;;1.45;83.62
67430;BME280;54298;52.076;5.264;2023-03-11T08:28:46;101030.0;;;1.57;82.65
67430;BME280;54298;52.076;5.264;2023-03-11T08:30:23;101032.0;;;1.64;81.5
67430;BME280;54298;52.076;5.264;2023-03-11T08:33:39;101037.0;;;1.8;81.19
67430;BME280;54298;52.076;5.264;2023-03-11T08:35:15;101040.0;;;1.82;80.81
67430;BME280;54298;52.076;5.264;2023-03-11T08:36:52;101041.0;;;1.82;80.14
67430;BME280;54298;52.076;5.264;2023-03-11T08:40:05;101041.0;;;1.99;80.11
67430;BME280;54298;52.076;5.264;2023-03-11T08:41:41;101041.0;;;2.07;80.22
67430;BME280;54298;52.076;5.264;2023-03-11T08:43:17;101045.0;;;2.16;79.66
67430;BME280;54298;52.076;5.264;2023-03-11T08:46:32;101048.0;;;2.19;78.91
67430;BME280;54298;52.076;5.264;2023-03-11T08:48:10;101048.0;;;2.17;76.58
67430;BME280;54298;52.076;5.264;2023-03-11T08:49:47;101046.0;;;2.17;74.27
67430;BME280;54298;52.076;5.264;2023-03-11T08:51:24;101042.0;;;2.23;72.98
67430;BME280;54298;52.076;5.264;2023-03-11T08:54:37;101045.0;;;2.27;72.73
67430;BME280;54298;52.076;5.264;2023-03-11T08:56:14;101049.0;;;2.31;71.88
67430;BME280;54298;52.076;5.264;2023-03-11T08:57:51;101055.0;;;2.35;69.72
67430;BME280;54298;52.076;5.264;2023-03-11T09:01:06;101058.0;;;2.4;69.53
67430;BME280;54298;52.076;5.264;2023-03-11T09:02:42;101060.0;;;2.52;69.7
67430;BME280;54298;52.076;5.264;2023-03-11T09:04:18;101067.0;;;2.6;69.31
67430;BME280;54298;52.076;5.264;2023-03-11T09:05:56;101081.0;;;2.77;69.77
67430;BME280;54298;52.076;5.264;2023-03-11T09:09:09;101080.0;;;2.78;68.09
67430;BME280;54298;52.076;5.264;2023-03-11T09:10:45;101080.0;;;2.87;67.36
67430;BME280;54298;52.076;5.264;2023-03-11T09:12:21;101073.0;;;2.88;66.81
67430;BME280;54298;52.076;5.264;2023-03-11T09:15:33;101077.0;;;3.06;66.7
67430;BME280;54298;52.076;5.264;2023-03-11T09:17:10;101080.0;;;3.18;66.22
67430;BME280;54298;52.076;5.264;2023-03-11T09:18:46;101080.0;;;3.27;66.77
67430;BME280;54298;52.076;5.264;2023-03-11T09:21:59;101086.0;;;3.34;65.69
67430;BME280;54298;52.076;5.264;2023-03-11T09:23:35;101088.0;;;3.43;65.75
67430;BME280;54298;52.076;5.264;2023-03-11T09:25:13;101083.0;;;3.5;65.58
67430;BME280;54298;52.076;5.264;2023-03-11T09:26:49;101088.0;;;3.52;64.73
67430;BME280;54298;52.076;5.264;2023-03-11T09:30:02;101087.0;;;3.62;64.83
67430;BME280;54298;52.076;5.264;2023-03-11T09:31:39;101084.0;;;3.66;62.86
67430;BME280;54298;52.076;5.264;2023-03-11T09:33:15;101075.0;;;3.77;63.66
67430;BME280;54298;52.076;5.264;2023-03-11T09:36:27;101081.0;;;3.79;64.22
67430;BME280;54298;52.076;5.264;2023-03-11T09:38:03;101077.0;;;3.89;65.0
67430;BME280;54298;52.076;5.264;2023-03-11T09:39:39;101070.0;;;3.86;63.53
67430;BME280;54298;52.076;5.264;2023-03-11T09:43:24;101070.0;;;3.89;62.07
67430;BME280;54298;52.076;5.264;2023-03-11T09:45:10;101071.0;;;3.93;61.82
67430;BME280;54298;52.076;5.264;2023-03-11T09:46:59;101076.0;;;4.04;62.14
67430;BME280;54298;52.076;5.264;2023-03-11T09:49:58;101080.0;;;4.08;62.05
67430;BME280;54298;52.076;5.264;2023-03-11T09:51:42;101077.0;;;4.17;62.18
67430;BME280;54298;52.076;5.264;2023-03-11T09:53:28;101080.0;;;4.18;61.53
67430;BME280;54298;52.076;5.264;2023-03-11T09:55:21;101078.0;;;4.16;60.55
67430;BME280;54298;52.076;5.264;2023-03-11T09:57:02;101082.0;;;4.39;61.49
67430;BME280;54298;52.076;5.264;2023-03-11T09:58:42;101082.0;;;4.5;60.42
67430;BME280;54298;52.076;5.264;2023-03-11T10:00:22;101081.0;;;4.49;59.68
67430;BME280;54298;52.076;5.264;2023-03-11T10:03:35;101082.0;;;4.66;59.59
67430;BME280;54298;52.076;5.264;2023-03-11T10:05:16;101087.0;;;4.63;59.64
67430;BME280;54298;52.076;5.264;2023-03-11T10:06:55;101089.0;;;4.76;59.21
67430;BME280;54298;52.076;5.264;2023-03-11T10:10:17;101087.0;;;4.86;57.82
67430;BME280;54298;52.076;5.264;2023-03-11T10:12:04;101084.0;;;4.93;58.38
67430;BME280;54298;52.076;5.264;2023-03-11T10:13:51;101092.0;;;5.03;57.01
67430;BME280;54298;52.076;5.264;2023-03-11T10:15:39;101095.0;;;5.08;58.12
67430;BME280;54298;52.076;5.264;2023-03-11T10:17:35;101095.0;;;4.99;56.78
67430;BME280;54298;52.076;5.264;2023-03-11T10:19:24;101095.0;;;5.0;56.45
67430;BME280;54298;52.076;5.264;2023-03-11T10:23:01;101101.0;;;5.12;56.83
67430;BME280;54298;52.076;5.264;2023-03-11T10:24:51;101100.0;;;5.19;56.79
67430;BME280;54298;52.076;5.264;2023-03-11T10:26:35;101096.0;;;5.27;57.94
67430;BME280;54298;52.076;5.264;2023-03-11T10:28:13;101097.0;;;5.23;56.15
67430;BME280;54298;52.076;5.264;2023-03-11T10:29:55;101095.0;;;5.32;55.79
67430;BME280;54298;52.076;5.264;2023-03-11T10:33:20;101097.0;;;5.15;55.42
67430;BME280;54298;52.076;5.264;2023-03-11T10:35:04;101096.0;;;5.35;55.48
67430;BME280;54298;52.076;5.264;2023-03-11T10:36:56;101096.0;;;5.28;56.56
67430;BME280;54298;52.076;5.264;2023-03-11T10:38:36;101094.0;;;5.22;55.51
67430;BME280;54298;52.076;5.264;2023-03-11T10:40:25;101098.0;;;5.41;54.92
67430;BME280;54298;52.076;5.264;2023-03-11T10:43:51;101096.0;;;5.51;54.3
67430;BME280;54298;52.076;5.264;2023-03-11T10:45:35;101093.0;;;5.52;54.9
67430;BME280;54298;52.076;5.264;2023-03-11T10:47:16;101089.0;;;5.61;54.49
67430;BME280;54298;52.076;5.264;2023-03-11T10:48:54;101085.0;;;5.64;55.37
67430;BME280;54298;52.076;5.264;2023-03-11T10:50:33;101082.0;;;5.6;55.83
67430;BME280;54298;52.076;5.264;2023-03-11T10:53:49;101084.0;;;5.63;55.9
67430;BME280;54298;52.076;5.264;2023-03-11T10:55:26;101086.0;;;5.66;56.11
67430;BME280;54298;52.076;5.264;2023-03-11T10:57:04;101087.0;;;5.53;54.43
67430;BME280;54298;52.076;5.264;2023-03-11T11:00:28;101088.0;;;5.59;53.75
67430;BME280;54298;52.076;5.264;2023-03-11T11:02:22;101089.0;;;5.64;55.87
67430;BME280;54298;52.076;5.264;2023-03-11T11:04:00;101089.0;;;5.57;53.55
67430;BME280;54298;52.076;5.264;2023-03-11T11:05:37;101090.0;;;5.62;53.36
67430;BME280;54298;52.076;5.264;2023-03-11T11:07:27;101094.0;;;5.61;53.87
67430;BME280;54298;52.076;5.264;2023-03-11T11:10:51;101096.0;;;5.51;53.16
67430;BME280;54298;52.076;5.264;2023-03-11T11:12:28;101094.0;;;5.64;53.69